Briefing drone pour Francheville

Rechercher une autre localisation

Conditions de vol :


Nous sommes le : Samedi 28 mai 2022
Il est 19:17 UTC (21:17 LT)

Lever de soleil : 03:31 UTC (05:31 LT)
Coucher de soleil : 19:45 UTC (21:45 LT)

Météo

L'essentiel des conditions de vol

VIGILANCE MÉTÉO FRANCE - Rhône (69)
Pas de vigilances particulieres
METAR de LFLL
LFLL 281900Z 34017KT CAVOK 19/01 Q1014 NOSIG

Date d'émission: 28/05/2022
Heure d'émission: 19:00 UTC
Vent: 340° pour 17 KT (31 km/h)
Visibilité horizontale: > 10 km
Plafond : Plafond et visibilité OK (CAVOK)
Température: 19 °C
Point de rosée: 1 °C
Humidité: 30%
Pression (QNH): 1014 hPa
Conditions: Pas de changement dans les 2 heures (NOSIG)
TAF de LFLL
LFLL 281700Z 2818/2924 35018KT CAVOK TEMPO 2900/2909 35008KT

Conditions prévues :

Heure d'émission : Bulletin éffectué le 28 à 18:00 UTC
Prévision : Valide du 28 a 18:00 UTC au 29 a 23:59 UTC
Vent : 350° pour 18 KT (33 km/h)
Visibilité : > 10 km

Temporairement :

Prévision : Valide du 29 a 00:00 UTC au 29 a 09:00 UTC
Vent : 350° pour 8 KT (15 km/h)
WEBCAM POUR FRANCHEVILLE

Réglementation

Voler en sécurité

CARTES AERONAUTIQUE 1/500.000
CARTES VAC (LFLL)
SUP AIP




Chargement des AIP...
NOTAM (FRANCHEVILLE + Terrain à proximité / FIR )




Chargement des NOTAMS...
CONTACT PREFECTURE 69


Avertissement : Les données mises à disposition sont indicatives. Oxygène Drone ne pourra être tenu responsable de dégâts causés aux biens et aux personnes.